Airport View

Enter ICAO identifier to see the current METAR for that AWOS.

KFNL for example

KGFA 280756Z AUTO 14011KT 12SM CLR 19/04 A3022 RMK AO2 SLP207 T01910044

28 Jul 2014 08:16

Other Area AWOS: KGTF - K79S - KHLN - KLWT

TAF KGFA 2803/2909 VRB06KT 9999 SKC QNH3017INS BECMG 2818/2819 07009KT 9999 BKN110 QNH3014INS TX30/2900Z TN15/2812Z